sensor_id;sensor_type;location;lat;lon;timestamp;P1;durP1;ratioP1;P2;durP2;ratioP2
10719;SDS011;5411;58.386;15.560;2023-02-15T00:00:10;14.83;;;10.17;;
10719;SDS011;5411;58.386;15.560;2023-02-15T00:02:39;14.13;;;10.10;;
10719;SDS011;5411;58.386;15.560;2023-02-15T00:05:07;15.93;;;10.60;;
10719;SDS011;5411;58.386;15.560;2023-02-15T00:07:37;14.43;;;10.20;;
10719;SDS011;5411;58.386;15.560;2023-02-15T00:10:06;13.57;;;10.40;;
10719;SDS011;5411;58.386;15.560;2023-02-15T00:12:35;13.50;;;9.30;;
10719;SDS011;5411;58.386;15.560;2023-02-15T00:15:03;17.33;;;9.73;;
10719;SDS011;5411;58.386;15.560;2023-02-15T00:17:32;14.23;;;10.13;;
10719;SDS011;5411;58.386;15.560;2023-02-15T00:20:00;14.27;;;9.30;;
10719;SDS011;5411;58.386;15.560;2023-02-15T00:22:29;17.20;;;9.53;;
10719;SDS011;5411;58.386;15.560;2023-02-15T00:24:58;17.70;;;10.30;;
10719;SDS011;5411;58.386;15.560;2023-02-15T00:27:27;15.63;;;9.80;;
10719;SDS011;5411;58.386;15.560;2023-02-15T00:29:55;15.00;;;11.00;;
10719;SDS011;5411;58.386;15.560;2023-02-15T00:32:24;13.53;;;10.13;;
10719;SDS011;5411;58.386;15.560;2023-02-15T00:35:01;14.20;;;10.17;;
10719;SDS011;5411;58.386;15.560;2023-02-15T00:37:29;15.60;;;10.30;;
10719;SDS011;5411;58.386;15.560;2023-02-15T00:39:59;13.77;;;10.53;;
10719;SDS011;5411;58.386;15.560;2023-02-15T00:42:27;15.83;;;10.43;;
10719;SDS011;5411;58.386;15.560;2023-02-15T00:44:56;15.93;;;10.63;;
10719;SDS011;5411;58.386;15.560;2023-02-15T00:47:26;15.40;;;9.77;;
10719;SDS011;5411;58.386;15.560;2023-02-15T00:50:01;13.73;;;10.60;;
10719;SDS011;5411;58.386;15.560;2023-02-15T00:52:30;15.13;;;10.10;;
10719;SDS011;5411;58.386;15.560;2023-02-15T00:55:00;15.67;;;10.83;;
10719;SDS011;5411;58.386;15.560;2023-02-15T00:57:28;14.37;;;10.40;;
10719;SDS011;5411;58.386;15.560;2023-02-15T00:59:57;15.67;;;9.80;;
10719;SDS011;5411;58.386;15.560;2023-02-15T01:02:34;15.77;;;10.37;;
10719;SDS011;5411;58.386;15.560;2023-02-15T01:05:05;15.63;;;10.93;;
10719;SDS011;5411;58.386;15.560;2023-02-15T01:07:34;15.30;;;9.87;;
10719;SDS011;5411;58.386;15.560;2023-02-15T01:10:04;15.47;;;10.90;;
10719;SDS011;5411;58.386;15.560;2023-02-15T01:12:33;14.43;;;10.30;;
10719;SDS011;5411;58.386;15.560;2023-02-15T01:15:02;15.00;;;10.60;;
10719;SDS011;5411;58.386;15.560;2023-02-15T01:17:30;16.27;;;9.43;;
10719;SDS011;5411;58.386;15.560;2023-02-15T01:19:59;15.23;;;10.13;;
10719;SDS011;5411;58.386;15.560;2023-02-15T01:22:28;14.17;;;9.97;;
10719;SDS011;5411;58.386;15.560;2023-02-15T01:24:56;15.77;;;8.97;;
10719;SDS011;5411;58.386;15.560;2023-02-15T01:27:28;12.47;;;9.07;;
10719;SDS011;5411;58.386;15.560;2023-02-15T01:29:57;12.00;;;9.27;;
10719;SDS011;5411;58.386;15.560;2023-02-15T01:32:25;15.30;;;9.77;;
10719;SDS011;5411;58.386;15.560;2023-02-15T01:34:54;16.83;;;9.43;;
10719;SDS011;5411;58.386;15.560;2023-02-15T01:37:22;13.60;;;9.03;;
10719;SDS011;5411;58.386;15.560;2023-02-15T01:39:50;12.77;;;9.07;;
10719;SDS011;5411;58.386;15.560;2023-02-15T01:42:20;15.47;;;8.93;;
10719;SDS011;5411;58.386;15.560;2023-02-15T01:44:51;14.00;;;9.73;;
10719;SDS011;5411;58.386;15.560;2023-02-15T01:47:22;12.17;;;9.23;;
10719;SDS011;5411;58.386;15.560;2023-02-15T01:49:58;13.73;;;8.90;;
10719;SDS011;5411;58.386;15.560;2023-02-15T01:52:31;12.13;;;9.43;;
10719;SDS011;5411;58.386;15.560;2023-02-15T01:55:03;14.20;;;9.13;;
10719;SDS011;5411;58.386;15.560;2023-02-15T01:57:33;14.87;;;9.43;;
10719;SDS011;5411;58.386;15.560;2023-02-15T02:00:04;13.60;;;9.67;;
10719;SDS011;5411;58.386;15.560;2023-02-15T02:02:36;13.70;;;9.63;;
10719;SDS011;5411;58.386;15.560;2023-02-15T02:05:05;17.10;;;9.03;;
10719;SDS011;5411;58.386;15.560;2023-02-15T02:07:36;14.33;;;8.97;;
10719;SDS011;5411;58.386;15.560;2023-02-15T02:10:09;14.03;;;8.93;;
10719;SDS011;5411;58.386;15.560;2023-02-15T02:12:39;13.67;;;9.37;;
10719;SDS011;5411;58.386;15.560;2023-02-15T02:15:11;14.27;;;9.00;;
10719;SDS011;5411;58.386;15.560;2023-02-15T02:17:42;15.17;;;9.37;;
10719;SDS011;5411;58.386;15.560;2023-02-15T02:20:35;14.47;;;9.03;;
10719;SDS011;5411;58.386;15.560;2023-02-15T02:23:30;15.23;;;9.80;;
10719;SDS011;5411;58.386;15.560;2023-02-15T02:26:28;13.23;;;9.13;;
10719;SDS011;5411;58.386;15.560;2023-02-15T02:35:30;15.53;;;9.40;;
10719;SDS011;5411;58.386;15.560;2023-02-15T02:38:10;16.10;;;9.53;;
10719;SDS011;5411;58.386;15.560;2023-02-15T02:40:50;17.03;;;10.70;;
10719;SDS011;5411;58.386;15.560;2023-02-15T02:43:25;14.43;;;10.20;;
10719;SDS011;5411;58.386;15.560;2023-02-15T02:46:02;15.67;;;10.80;;
10719;SDS011;5411;58.386;15.560;2023-02-15T02:48:36;17.40;;;11.10;;
10719;SDS011;5411;58.386;15.560;2023-02-15T02:51:06;15.83;;;10.40;;
10719;SDS011;5411;58.386;15.560;2023-02-15T02:53:34;19.23;;;11.33;;
10719;SDS011;5411;58.386;15.560;2023-02-15T02:56:05;17.17;;;10.27;;
10719;SDS011;5411;58.386;15.560;2023-02-15T02:58:44;19.50;;;11.33;;
10719;SDS011;5411;58.386;15.560;2023-02-15T03:01:17;19.43;;;11.07;;
10719;SDS011;5411;58.386;15.560;2023-02-15T03:03:54;20.37;;;11.67;;
10719;SDS011;5411;58.386;15.560;2023-02-15T03:06:28;18.23;;;11.43;;
10719;SDS011;5411;58.386;15.560;2023-02-15T03:09:02;16.20;;;10.57;;
10719;SDS011;5411;58.386;15.560;2023-02-15T03:11:48;18.53;;;11.50;;
10719;SDS011;5411;58.386;15.560;2023-02-15T03:14:17;18.27;;;11.07;;
10719;SDS011;5411;58.386;15.560;2023-02-15T03:16:47;16.20;;;10.40;;
10719;SDS011;5411;58.386;15.560;2023-02-15T03:19:21;15.93;;;10.50;;
10719;SDS011;5411;58.386;15.560;2023-02-15T03:21:54;16.37;;;10.37;;
10719;SDS011;5411;58.386;15.560;2023-02-15T03:24:31;18.00;;;10.77;;
10719;SDS011;5411;58.386;15.560;2023-02-15T03:27:02;18.00;;;10.87;;
10719;SDS011;5411;58.386;15.560;2023-02-15T03:29:34;18.53;;;11.23;;
10719;SDS011;5411;58.386;15.560;2023-02-15T03:32:05;18.40;;;11.80;;
10719;SDS011;5411;58.386;15.560;2023-02-15T03:34:39;17.27;;;10.87;;
10719;SDS011;5411;58.386;15.560;2023-02-15T03:37:10;17.90;;;11.10;;
10719;SDS011;5411;58.386;15.560;2023-02-15T03:39:44;16.47;;;10.87;;
10719;SDS011;5411;58.386;15.560;2023-02-15T03:42:23;14.53;;;9.63;;
10719;SDS011;5411;58.386;15.560;2023-02-15T03:44:54;15.33;;;9.97;;
10719;SDS011;5411;58.386;15.560;2023-02-15T03:47:31;14.53;;;10.00;;
10719;SDS011;5411;58.386;15.560;2023-02-15T03:50:05;13.93;;;9.53;;
10719;SDS011;5411;58.386;15.560;2023-02-15T03:52:52;14.47;;;9.67;;
10719;SDS011;5411;58.386;15.560;2023-02-15T03:55:22;14.07;;;9.70;;
10719;SDS011;5411;58.386;15.560;2023-02-15T03:57:51;15.20;;;9.67;;
10719;SDS011;5411;58.386;15.560;2023-02-15T04:00:37;13.23;;;9.30;;
10719;SDS011;5411;58.386;15.560;2023-02-15T04:03:31;16.10;;;9.13;;
10719;SDS011;5411;58.386;15.560;2023-02-15T04:06:06;16.57;;;9.67;;
10719;SDS011;5411;58.386;15.560;2023-02-15T04:08:34;14.83;;;8.90;;
10719;SDS011;5411;58.386;15.560;2023-02-15T04:11:16;13.37;;;8.90;;
10719;SDS011;5411;58.386;15.560;2023-02-15T04:13:46;13.77;;;8.77;;
10719;SDS011;5411;58.386;15.560;2023-02-15T04:16:14;15.07;;;8.80;;
10719;SDS011;5411;58.386;15.560;2023-02-15T04:18:42;13.67;;;8.43;;
10719;SDS011;5411;58.386;15.560;2023-02-15T04:21:29;12.83;;;8.43;;
10719;SDS011;5411;58.386;15.560;2023-02-15T04:24:15;13.40;;;8.50;;
10719;SDS011;5411;58.386;15.560;2023-02-15T04:27:02;11.87;;;7.93;;
10719;SDS011;5411;58.386;15.560;2023-02-15T04:29:31;13.33;;;8.83;;
10719;SDS011;5411;58.386;15.560;2023-02-15T04:32:00;12.70;;;8.17;;
10719;SDS011;5411;58.386;15.560;2023-02-15T04:34:29;12.37;;;8.33;;
10719;SDS011;5411;58.386;15.560;2023-02-15T04:36:59;11.87;;;7.97;;
10719;SDS011;5411;58.386;15.560;2023-02-15T04:39:27;13.13;;;8.33;;
10719;SDS011;5411;58.386;15.560;2023-02-15T04:41:55;11.53;;;7.87;;
10719;SDS011;5411;58.386;15.560;2023-02-15T04:44:23;11.73;;;7.63;;
10719;SDS011;5411;58.386;15.560;2023-02-15T04:46:52;10.40;;;7.27;;
10719;SDS011;5411;58.386;15.560;2023-02-15T04:49:21;13.53;;;7.37;;
10719;SDS011;5411;58.386;15.560;2023-02-15T04:51:49;13.27;;;8.60;;
10719;SDS011;5411;58.386;15.560;2023-02-15T04:54:20;11.30;;;7.63;;
10719;SDS011;5411;58.386;15.560;2023-02-15T04:56:48;13.03;;;8.33;;
10719;SDS011;5411;58.386;15.560;2023-02-15T04:59:16;11.93;;;8.13;;
10719;SDS011;5411;58.386;15.560;2023-02-15T05:01:45;15.73;;;8.30;;
10719;SDS011;5411;58.386;15.560;2023-02-15T05:04:13;11.37;;;7.20;;
10719;SDS011;5411;58.386;15.560;2023-02-15T05:06:43;12.87;;;7.80;;
10719;SDS011;5411;58.386;15.560;2023-02-15T05:09:11;11.23;;;7.30;;
10719;SDS011;5411;58.386;15.560;2023-02-15T05:11:41;12.57;;;7.63;;
10719;SDS011;5411;58.386;15.560;2023-02-15T05:14:09;13.13;;;7.60;;
10719;SDS011;5411;58.386;15.560;2023-02-15T05:16:38;13.47;;;8.30;;
10719;SDS011;5411;58.386;15.560;2023-02-15T05:19:06;13.47;;;8.63;;
10719;SDS011;5411;58.386;15.560;2023-02-15T05:21:34;14.13;;;8.53;;
10719;SDS011;5411;58.386;15.560;2023-02-15T05:24:03;14.27;;;8.33;;
10719;SDS011;5411;58.386;15.560;2023-02-15T05:26:53;13.83;;;8.27;;
10719;SDS011;5411;58.386;15.560;2023-02-15T05:29:39;15.33;;;8.57;;
10719;SDS011;5411;58.386;15.560;2023-02-15T05:32:07;12.03;;;7.90;;
10719;SDS011;5411;58.386;15.560;2023-02-15T05:34:35;11.97;;;7.77;;
10719;SDS011;5411;58.386;15.560;2023-02-15T05:37:03;12.73;;;8.33;;
10719;SDS011;5411;58.386;15.560;2023-02-15T05:39:33;12.00;;;8.20;;
10719;SDS011;5411;58.386;15.560;2023-02-15T05:42:03;10.33;;;7.23;;
10719;SDS011;5411;58.386;15.560;2023-02-15T05:44:31;14.47;;;8.37;;
10719;SDS011;5411;58.386;15.560;2023-02-15T05:47:01;13.83;;;7.70;;
10719;SDS011;5411;58.386;15.560;2023-02-15T05:49:29;12.57;;;8.10;;
10719;SDS011;5411;58.386;15.560;2023-02-15T05:51:58;13.20;;;7.17;;
10719;SDS011;5411;58.386;15.560;2023-02-15T05:54:26;12.90;;;7.40;;
10719;SDS011;5411;58.386;15.560;2023-02-15T05:56:54;12.90;;;8.00;;
10719;SDS011;5411;58.386;15.560;2023-02-15T05:59:24;12.30;;;7.77;;
10719;SDS011;5411;58.386;15.560;2023-02-15T06:01:56;12.03;;;7.37;;
10719;SDS011;5411;58.386;15.560;2023-02-15T06:04:25;11.27;;;7.00;;
10719;SDS011;5411;58.386;15.560;2023-02-15T06:06:53;12.73;;;7.53;;
10719;SDS011;5411;58.386;15.560;2023-02-15T06:09:22;10.37;;;6.73;;
10719;SDS011;5411;58.386;15.560;2023-02-15T06:11:50;14.07;;;7.77;;
10719;SDS011;5411;58.386;15.560;2023-02-15T06:14:19;10.80;;;7.27;;
10719;SDS011;5411;58.386;15.560;2023-02-15T06:16:48;12.37;;;7.23;;
10719;SDS011;5411;58.386;15.560;2023-02-15T06:19:17;10.10;;;6.90;;
10719;SDS011;5411;58.386;15.560;2023-02-15T06:21:45;11.40;;;7.67;;
10719;SDS011;5411;58.386;15.560;2023-02-15T06:24:15;15.93;;;7.30;;
10719;SDS011;5411;58.386;15.560;2023-02-15T06:26:43;11.70;;;6.83;;
10719;SDS011;5411;58.386;15.560;2023-02-15T06:29:11;15.07;;;7.67;;
10719;SDS011;5411;58.386;15.560;2023-02-15T06:31:40;12.40;;;7.73;;
10719;SDS011;5411;58.386;15.560;2023-02-15T06:34:10;11.30;;;7.57;;
10719;SDS011;5411;58.386;15.560;2023-02-15T06:36:38;13.50;;;7.83;;
10719;SDS011;5411;58.386;15.560;2023-02-15T06:39:06;13.03;;;8.03;;
10719;SDS011;5411;58.386;15.560;2023-02-15T06:41:34;15.20;;;8.57;;
10719;SDS011;5411;58.386;15.560;2023-02-15T06:44:03;12.80;;;8.33;;
10719;SDS011;5411;58.386;15.560;2023-02-15T06:46:31;13.50;;;8.53;;
10719;SDS011;5411;58.386;15.560;2023-02-15T06:48:59;13.87;;;8.70;;
10719;SDS011;5411;58.386;15.560;2023-02-15T06:51:29;11.97;;;7.33;;
10719;SDS011;5411;58.386;15.560;2023-02-15T06:54:00;13.80;;;8.40;;
10719;SDS011;5411;58.386;15.560;2023-02-15T06:56:29;10.57;;;6.93;;
10719;SDS011;5411;58.386;15.560;2023-02-15T06:58:57;11.50;;;8.00;;
10719;SDS011;5411;58.386;15.560;2023-02-15T07:01:26;12.07;;;7.67;;
10719;SDS011;5411;58.386;15.560;2023-02-15T07:03:54;10.70;;;7.57;;
10719;SDS011;5411;58.386;15.560;2023-02-15T07:06:23;13.07;;;7.30;;
10719;SDS011;5411;58.386;15.560;2023-02-15T07:08:53;12.67;;;8.20;;
10719;SDS011;5411;58.386;15.560;2023-02-15T07:11:21;10.73;;;6.83;;
10719;SDS011;5411;58.386;15.560;2023-02-15T07:14:06;12.10;;;8.10;;
10719;SDS011;5411;58.386;15.560;2023-02-15T07:16:35;11.67;;;7.43;;
10719;SDS011;5411;58.386;15.560;2023-02-15T07:19:03;11.97;;;7.27;;
10719;SDS011;5411;58.386;15.560;2023-02-15T07:21:31;12.57;;;7.53;;
10719;SDS011;5411;58.386;15.560;2023-02-15T07:24:01;13.57;;;7.13;;
10719;SDS011;5411;58.386;15.560;2023-02-15T07:26:30;11.83;;;7.20;;
10719;SDS011;5411;58.386;15.560;2023-02-15T07:28:59;11.10;;;7.07;;
10719;SDS011;5411;58.386;15.560;2023-02-15T07:31:28;10.10;;;6.77;;
10719;SDS011;5411;58.386;15.560;2023-02-15T07:33:56;12.80;;;7.77;;
10719;SDS011;5411;58.386;15.560;2023-02-15T07:36:25;11.10;;;6.47;;
10719;SDS011;5411;58.386;15.560;2023-02-15T07:38:53;10.00;;;6.63;;
10719;SDS011;5411;58.386;15.560;2023-02-15T07:41:23;12.07;;;6.77;;
10719;SDS011;5411;58.386;15.560;2023-02-15T07:43:51;10.90;;;6.93;;
10719;SDS011;5411;58.386;15.560;2023-02-15T07:46:20;9.60;;;7.00;;
10719;SDS011;5411;58.386;15.560;2023-02-15T07:48:48;13.70;;;6.23;;
10719;SDS011;5411;58.386;15.560;2023-02-15T07:51:16;13.30;;;6.13;;
10719;SDS011;5411;58.386;15.560;2023-02-15T07:53:46;11.47;;;6.70;;
10719;SDS011;5411;58.386;15.560;2023-02-15T07:56:15;10.43;;;6.93;;
10719;SDS011;5411;58.386;15.560;2023-02-15T07:58:45;11.80;;;7.03;;
10719;SDS011;5411;58.386;15.560;2023-02-15T08:01:23;9.70;;;6.83;;
10719;SDS011;5411;58.386;15.560;2023-02-15T08:03:53;11.90;;;7.90;;
10719;SDS011;5411;58.386;15.560;2023-02-15T08:06:24;9.77;;;6.70;;
10719;SDS011;5411;58.386;15.560;2023-02-15T08:08:53;11.73;;;7.47;;
10719;SDS011;5411;58.386;15.560;2023-02-15T08:11:22;13.53;;;7.73;;
10719;SDS011;5411;58.386;15.560;2023-02-15T08:14:01;12.77;;;7.90;;
10719;SDS011;5411;58.386;15.560;2023-02-15T08:16:32;9.23;;;6.73;;
10719;SDS011;5411;58.386;15.560;2023-02-15T08:19:03;11.73;;;7.93;;
10719;SDS011;5411;58.386;15.560;2023-02-15T08:21:33;12.50;;;7.47;;
10719;SDS011;5411;58.386;15.560;2023-02-15T08:24:02;10.80;;;7.00;;
10719;SDS011;5411;58.386;15.560;2023-02-15T08:26:32;11.30;;;6.60;;
10719;SDS011;5411;58.386;15.560;2023-02-15T08:29:02;11.80;;;7.33;;
10719;SDS011;5411;58.386;15.560;2023-02-15T08:31:31;11.77;;;7.63;;
10719;SDS011;5411;58.386;15.560;2023-02-15T08:33:59;9.87;;;6.70;;
10719;SDS011;5411;58.386;15.560;2023-02-15T08:36:28;11.13;;;7.00;;
10719;SDS011;5411;58.386;15.560;2023-02-15T08:38:58;9.70;;;6.53;;
10719;SDS011;5411;58.386;15.560;2023-02-15T08:41:28;11.47;;;7.43;;
10719;SDS011;5411;58.386;15.560;2023-02-15T08:43:58;11.80;;;7.03;;
10719;SDS011;5411;58.386;15.560;2023-02-15T08:46:30;12.77;;;7.60;;
10719;SDS011;5411;58.386;15.560;2023-02-15T08:49:00;12.10;;;8.10;;
10719;SDS011;5411;58.386;15.560;2023-02-15T08:51:29;11.87;;;8.10;;
10719;SDS011;5411;58.386;15.560;2023-02-15T08:54:01;15.73;;;8.43;;
10719;SDS011;5411;58.386;15.560;2023-02-15T08:56:32;13.33;;;8.93;;
10719;SDS011;5411;58.386;15.560;2023-02-15T08:59:01;11.73;;;7.87;;
10719;SDS011;5411;58.386;15.560;2023-02-15T09:01:32;14.37;;;9.30;;
10719;SDS011;5411;58.386;15.560;2023-02-15T09:04:03;14.13;;;9.13;;
10719;SDS011;5411;58.386;15.560;2023-02-15T09:06:35;14.00;;;9.77;;
10719;SDS011;5411;58.386;15.560;2023-02-15T09:09:04;17.10;;;9.97;;
10719;SDS011;5411;58.386;15.560;2023-02-15T09:11:33;14.63;;;9.27;;
10719;SDS011;5411;58.386;15.560;2023-02-15T09:14:03;15.90;;;9.70;;
10719;SDS011;5411;58.386;15.560;2023-02-15T09:16:36;15.40;;;10.43;;
10719;SDS011;5411;58.386;15.560;2023-02-15T09:19:05;15.90;;;10.03;;
10719;SDS011;5411;58.386;15.560;2023-02-15T09:21:35;14.00;;;9.93;;
10719;SDS011;5411;58.386;15.560;2023-02-15T09:24:06;14.43;;;10.17;;
10719;SDS011;5411;58.386;15.560;2023-02-15T09:26:38;16.63;;;10.37;;
10719;SDS011;5411;58.386;15.560;2023-02-15T09:29:09;16.00;;;10.13;;
10719;SDS011;5411;58.386;15.560;2023-02-15T09:31:40;17.13;;;11.13;;
10719;SDS011;5411;58.386;15.560;2023-02-15T09:34:12;18.03;;;11.03;;
10719;SDS011;5411;58.386;15.560;2023-02-15T09:36:43;17.67;;;10.57;;
10719;SDS011;5411;58.386;15.560;2023-02-15T09:39:12;18.70;;;10.73;;
10719;SDS011;5411;58.386;15.560;2023-02-15T09:45:07;15.67;;;10.60;;
10719;SDS011;5411;58.386;15.560;2023-02-15T09:48:03;16.17;;;10.27;;
10719;SDS011;5411;58.386;15.560;2023-02-15T09:50:53;18.07;;;10.53;;
10719;SDS011;5411;58.386;15.560;2023-02-15T09:53:38;15.50;;;9.93;;
10719;SDS011;5411;58.386;15.560;2023-02-15T09:56:24;17.17;;;11.00;;
10719;SDS011;5411;58.386;15.560;2023-02-15T09:59:05;14.97;;;9.90;;
10719;SDS011;5411;58.386;15.560;2023-02-15T10:01:45;15.23;;;10.27;;
10719;SDS011;5411;58.386;15.560;2023-02-15T10:04:34;15.33;;;10.73;;
10719;SDS011;5411;58.386;15.560;2023-02-15T10:07:13;15.50;;;10.87;;
10719;SDS011;5411;58.386;15.560;2023-02-15T10:09:55;14.53;;;10.13;;
10719;SDS011;5411;58.386;15.560;2023-02-15T10:12:43;14.37;;;9.67;;
10719;SDS011;5411;58.386;15.560;2023-02-15T10:15:30;12.93;;;9.20;;
10719;SDS011;5411;58.386;15.560;2023-02-15T10:18:16;14.93;;;10.23;;
10719;SDS011;5411;58.386;15.560;2023-02-15T10:20:54;14.27;;;10.03;;
10719;SDS011;5411;58.386;15.560;2023-02-15T10:23:31;15.47;;;9.73;;
10719;SDS011;5411;58.386;15.560;2023-02-15T10:26:16;15.27;;;9.83;;
10719;SDS011;5411;58.386;15.560;2023-02-15T10:28:48;13.73;;;9.50;;
10719;SDS011;5411;58.386;15.560;2023-02-15T10:31:22;16.37;;;10.37;;
10719;SDS011;5411;58.386;15.560;2023-02-15T10:34:03;16.17;;;10.53;;
10719;SDS011;5411;58.386;15.560;2023-02-15T10:36:53;16.47;;;10.60;;
10719;SDS011;5411;58.386;15.560;2023-02-15T10:39:42;16.63;;;11.00;;
10719;SDS011;5411;58.386;15.560;2023-02-15T10:42:23;14.83;;;10.17;;
10719;SDS011;5411;58.386;15.560;2023-02-15T10:45:05;16.10;;;10.67;;
10719;SDS011;5411;58.386;15.560;2023-02-15T10:47:54;18.13;;;10.33;;
10719;SDS011;5411;58.386;15.560;2023-02-15T10:50:46;16.30;;;10.37;;
10719;SDS011;5411;58.386;15.560;2023-02-15T10:53:21;15.93;;;10.70;;
10719;SDS011;5411;58.386;15.560;2023-02-15T10:55:59;17.53;;;11.03;;
10719;SDS011;5411;58.386;15.560;2023-02-15T10:58:38;15.17;;;9.53;;
10719;SDS011;5411;58.386;15.560;2023-02-15T11:01:19;15.03;;;9.87;;
10719;SDS011;5411;58.386;15.560;2023-02-15T11:03:57;15.97;;;10.50;;
10719;SDS011;5411;58.386;15.560;2023-02-15T11:06:43;15.63;;;10.13;;
10719;SDS011;5411;58.386;15.560;2023-02-15T11:09:19;15.53;;;10.83;;
10719;SDS011;5411;58.386;15.560;2023-02-15T11:11:51;15.47;;;9.67;;
10719;SDS011;5411;58.386;15.560;2023-02-15T11:14:34;14.60;;;10.37;;
10719;SDS011;5411;58.386;15.560;2023-02-15T11:17:08;15.33;;;10.40;;
10719;SDS011;5411;58.386;15.560;2023-02-15T11:19:41;13.53;;;9.43;;
10719;SDS011;5411;58.386;15.560;2023-02-15T11:22:17;14.07;;;9.83;;
10719;SDS011;5411;58.386;15.560;2023-02-15T11:24:47;13.63;;;9.57;;
10719;SDS011;5411;58.386;15.560;2023-02-15T11:27:17;17.47;;;10.30;;
10719;SDS011;5411;58.386;15.560;2023-02-15T11:29:57;16.20;;;10.43;;
10719;SDS011;5411;58.386;15.560;2023-02-15T11:32:28;15.97;;;9.37;;
10719;SDS011;5411;58.386;15.560;2023-02-15T11:35:00;15.40;;;9.90;;
10719;SDS011;5411;58.386;15.560;2023-02-15T11:37:34;15.37;;;9.70;;
10719;SDS011;5411;58.386;15.560;2023-02-15T11:40:14;14.83;;;9.83;;
10719;SDS011;5411;58.386;15.560;2023-02-15T11:42:47;15.30;;;9.27;;
10719;SDS011;5411;58.386;15.560;2023-02-15T11:45:19;13.33;;;8.67;;
10719;SDS011;5411;58.386;15.560;2023-02-15T11:47:53;18.90;;;10.00;;
10719;SDS011;5411;58.386;15.560;2023-02-15T11:50:22;16.03;;;9.60;;
10719;SDS011;5411;58.386;15.560;2023-02-15T11:52:56;16.60;;;9.97;;
10719;SDS011;5411;58.386;15.560;2023-02-15T11:55:27;17.00;;;10.30;;
10719;SDS011;5411;58.386;15.560;2023-02-15T11:57:57;16.37;;;8.97;;
10719;SDS011;5411;58.386;15.560;2023-02-15T12:00:32;18.67;;;9.67;;
10719;SDS011;5411;58.386;15.560;2023-02-15T12:03:09;15.80;;;10.00;;
10719;SDS011;5411;58.386;15.560;2023-02-15T12:05:44;15.63;;;9.60;;
10719;SDS011;5411;58.386;15.560;2023-02-15T12:08:16;17.20;;;9.43;;
10719;SDS011;5411;58.386;15.560;2023-02-15T12:11:00;15.87;;;9.07;;
10719;SDS011;5411;58.386;15.560;2023-02-15T12:13:34;18.33;;;9.67;;
10719;SDS011;5411;58.386;15.560;2023-02-15T12:16:04;18.03;;;11.17;;
10719;SDS011;5411;58.386;15.560;2023-02-15T12:18:39;16.77;;;10.30;;
10719;SDS011;5411;58.386;15.560;2023-02-15T12:21:11;17.90;;;9.87;;
10719;SDS011;5411;58.386;15.560;2023-02-15T12:23:43;20.80;;;10.20;;
10719;SDS011;5411;58.386;15.560;2023-02-15T12:26:19;17.73;;;9.90;;
10719;SDS011;5411;58.386;15.560;2023-02-15T12:28:52;17.70;;;9.47;;
10719;SDS011;5411;58.386;15.560;2023-02-15T12:31:27;17.17;;;9.57;;
10719;SDS011;5411;58.386;15.560;2023-02-15T12:34:01;16.77;;;9.97;;
10719;SDS011;5411;58.386;15.560;2023-02-15T12:36:32;18.83;;;9.60;;
10719;SDS011;5411;58.386;15.560;2023-02-15T12:39:19;17.77;;;9.87;;
10719;SDS011;5411;58.386;15.560;2023-02-15T12:42:01;14.93;;;9.23;;
10719;SDS011;5411;58.386;15.560;2023-02-15T12:44:32;19.87;;;10.57;;
10719;SDS011;5411;58.386;15.560;2023-02-15T12:47:04;17.77;;;10.13;;
10719;SDS011;5411;58.386;15.560;2023-02-15T12:49:34;18.03;;;9.67;;
10719;SDS011;5411;58.386;15.560;2023-02-15T12:52:04;17.63;;;9.97;;
10719;SDS011;5411;58.386;15.560;2023-02-15T12:54:35;17.60;;;8.90;;
10719;SDS011;5411;58.386;15.560;2023-02-15T12:59:57;18.40;;;9.87;;
10719;SDS011;5411;58.386;15.560;2023-02-15T13:02:30;20.33;;;9.63;;
10719;SDS011;5411;58.386;15.560;2023-02-15T13:05:23;19.13;;;11.23;;
10719;SDS011;5411;58.386;15.560;2023-02-15T13:07:56;17.93;;;9.23;;
10719;SDS011;5411;58.386;15.560;2023-02-15T13:10:27;17.90;;;9.27;;
10719;SDS011;5411;58.386;15.560;2023-02-15T13:12:59;18.57;;;9.27;;
10719;SDS011;5411;58.386;15.560;2023-02-15T13:15:31;18.70;;;9.13;;
10719;SDS011;5411;58.386;15.560;2023-02-15T13:18:04;18.03;;;8.80;;
10719;SDS011;5411;58.386;15.560;2023-02-15T13:20:38;16.43;;;8.40;;
10719;SDS011;5411;58.386;15.560;2023-02-15T13:23:09;18.23;;;8.97;;
10719;SDS011;5411;58.386;15.560;2023-02-15T13:25:50;17.13;;;9.33;;
10719;SDS011;5411;58.386;15.560;2023-02-15T13:28:21;17.77;;;9.33;;
10719;SDS011;5411;58.386;15.560;2023-02-15T13:30:53;18.03;;;9.13;;
10719;SDS011;5411;58.386;15.560;2023-02-15T13:33:23;16.40;;;8.13;;
10719;SDS011;5411;58.386;15.560;2023-02-15T13:36:00;16.97;;;9.07;;
10719;SDS011;5411;58.386;15.560;2023-02-15T13:38:41;17.43;;;8.40;;
10719;SDS011;5411;58.386;15.560;2023-02-15T13:41:17;18.70;;;8.27;;
10719;SDS011;5411;58.386;15.560;2023-02-15T13:43:55;13.90;;;8.07;;
10719;SDS011;5411;58.386;15.560;2023-02-15T13:46:35;15.67;;;7.83;;
10719;SDS011;5411;58.386;15.560;2023-02-15T13:49:15;17.27;;;8.50;;
10719;SDS011;5411;58.386;15.560;2023-02-15T13:52:06;18.37;;;8.73;;
10719;SDS011;5411;58.386;15.560;2023-02-15T13:54:48;17.33;;;8.37;;
10719;SDS011;5411;58.386;15.560;2023-02-15T13:57:45;17.50;;;8.83;;
10719;SDS011;5411;58.386;15.560;2023-02-15T14:00:27;16.63;;;8.53;;
10719;SDS011;5411;58.386;15.560;2023-02-15T14:03:12;16.40;;;8.70;;
10719;SDS011;5411;58.386;15.560;2023-02-15T14:06:01;15.63;;;7.70;;
10719;SDS011;5411;58.386;15.560;2023-02-15T14:08:45;17.07;;;8.37;;
10719;SDS011;5411;58.386;15.560;2023-02-15T14:11:25;20.20;;;9.10;;
10719;SDS011;5411;58.386;15.560;2023-02-15T14:16:59;18.90;;;8.87;;
10719;SDS011;5411;58.386;15.560;2023-02-15T14:19:38;21.07;;;8.97;;
10719;SDS011;5411;58.386;15.560;2023-02-15T14:22:18;14.63;;;7.50;;
10719;SDS011;5411;58.386;15.560;2023-02-15T14:25:01;16.23;;;7.33;;
10719;SDS011;5411;58.386;15.560;2023-02-15T14:27:48;18.30;;;8.27;;
10719;SDS011;5411;58.386;15.560;2023-02-15T14:30:24;17.33;;;8.67;;
10719;SDS011;5411;58.386;15.560;2023-02-15T14:33:00;18.63;;;8.30;;
10719;SDS011;5411;58.386;15.560;2023-02-15T14:35:34;15.93;;;8.43;;
10719;SDS011;5411;58.386;15.560;2023-02-15T14:38:06;18.73;;;9.40;;
10719;SDS011;5411;58.386;15.560;2023-02-15T14:40:43;16.07;;;8.37;;
10719;SDS011;5411;58.386;15.560;2023-02-15T14:43:31;17.30;;;8.20;;
10719;SDS011;5411;58.386;15.560;2023-02-15T14:46:10;20.10;;;8.80;;
10719;SDS011;5411;58.386;15.560;2023-02-15T14:48:48;16.17;;;8.13;;
10719;SDS011;5411;58.386;15.560;2023-02-15T14:57:26;19.37;;;8.60;;
10719;SDS011;5411;58.386;15.560;2023-02-15T15:03:18;16.80;;;7.90;;
10719;SDS011;5411;58.386;15.560;2023-02-15T15:05:51;17.97;;;8.17;;
10719;SDS011;5411;58.386;15.560;2023-02-15T15:08:22;17.10;;;8.03;;
10719;SDS011;5411;58.386;15.560;2023-02-15T15:10:56;20.90;;;9.73;;
10719;SDS011;5411;58.386;15.560;2023-02-15T15:14:08;19.90;;;8.80;;
10719;SDS011;5411;58.386;15.560;2023-02-15T15:16:47;18.00;;;8.57;;
10719;SDS011;5411;58.386;15.560;2023-02-15T15:22:24;20.37;;;9.63;;
10719;SDS011;5411;58.386;15.560;2023-02-15T15:24:53;18.27;;;8.30;;
10719;SDS011;5411;58.386;15.560;2023-02-15T15:27:45;17.40;;;8.80;;
10719;SDS011;5411;58.386;15.560;2023-02-15T15:33:29;19.20;;;9.33;;
10719;SDS011;5411;58.386;15.560;2023-02-15T15:36:36;22.20;;;10.60;;
10719;SDS011;5411;58.386;15.560;2023-02-15T15:39:41;20.33;;;10.27;;